首页
METAR-TAF:

METAR-TAF

机场 :

種子島機場

種子島, 日本

纬度: 30-33N, 经度: 130-57E, 海拔: 92米

当前天气观测

该预报发布于27分钟前的00:00 UTC
风速5节,风向东转东北,在北转东北东转东南之间变化
温度 23°C
湿度 94%
气压 1014 hPa
能见度10公里或以上
少量云层高于1000英尺
多云层高于6000英尺
小雨

METAR: RJFG 240000Z 06005KT 020V120 9999 -RA FEW010 BKN060 23/22 Q1014

时间: 09:27 (00:27 UTC)


TAF: 丢失

超过4000个机场的气象观测和天气预报(METAR&TAF报告)。

可查询的气象台以黄色和红色小点在地图上表示。

将鼠标移到小点上方,可查看气象台名称。

然后点击查看天气观测和预报。

如需切换地图:点击带黑十字的绿色按钮放大地图;点击带横线的绿色按钮缩小地图;或者点击绿色箭头查看邻近地区的地图。


METAR-TAF: